createdAt,value
2022-09-12T00:01:07.031Z,15.96
2022-09-12T00:03:35.264Z,15.95
2022-09-12T00:06:08.143Z,15.89
2022-09-12T00:08:36.191Z,15.84
2022-09-12T00:11:07.491Z,15.83
2022-09-12T00:13:40.862Z,15.78
2022-09-12T00:16:15.003Z,15.74
2022-09-12T00:18:44.256Z,15.74
2022-09-12T00:21:12.332Z,15.74
2022-09-12T00:23:40.380Z,15.73
2022-09-12T00:26:09.086Z,15.72
2022-09-12T00:28:39.011Z,15.68
2022-09-12T00:31:09.263Z,15.66
2022-09-12T00:33:38.812Z,15.63
2022-09-12T00:36:09.067Z,15.65
2022-09-12T00:38:38.789Z,15.66
2022-09-12T00:41:07.295Z,15.66
2022-09-12T00:43:38.041Z,15.67
2022-09-12T00:46:13.170Z,15.63
2022-09-12T00:48:45.281Z,15.62
2022-09-12T00:51:14.203Z,15.58
2022-09-12T00:53:44.864Z,15.57
2022-09-12T00:56:15.398Z,15.56
2022-09-12T00:58:48.935Z,15.54
2022-09-12T01:01:17.103Z,15.54
2022-09-12T01:03:46.696Z,15.52
2022-09-12T01:06:18.906Z,15.52
2022-09-12T01:08:49.686Z,15.52
2022-09-12T01:11:19.505Z,15.54
2022-09-12T01:13:48.022Z,15.53
2022-09-12T01:16:16.230Z,15.50
2022-09-12T01:19:02.833Z,15.45
2022-09-12T01:21:40.113Z,15.44
2022-09-12T01:24:39.778Z,15.42
2022-09-12T01:27:42.206Z,15.43
2022-09-12T01:30:45.350Z,15.45
2022-09-12T01:33:41.763Z,15.49
2022-09-12T01:36:39.053Z,15.52
2022-09-12T01:39:15.204Z,15.52
2022-09-12T01:41:53.932Z,15.50
2022-09-12T01:44:34.788Z,15.49
2022-09-12T01:47:10.309Z,15.50
2022-09-12T01:49:47.392Z,15.49
2022-09-12T01:52:21.842Z,15.45
2022-09-12T01:54:55.524Z,15.42
2022-09-12T01:57:29.202Z,15.38
2022-09-12T02:00:01.798Z,15.40
2022-09-12T02:02:36.680Z,15.41
2022-09-12T02:05:09.423Z,15.41
2022-09-12T02:07:41.595Z,15.44
2022-09-12T02:10:14.614Z,15.43
2022-09-12T02:12:47.885Z,15.45
2022-09-12T02:15:20.981Z,15.45
2022-09-12T02:17:53.238Z,15.47
2022-09-12T02:20:44.361Z,15.47
2022-09-12T02:23:17.464Z,15.47
2022-09-12T02:25:49.006Z,15.46
2022-09-12T02:28:22.916Z,15.41
2022-09-12T02:30:58.028Z,15.38
2022-09-12T02:33:32.347Z,15.38
2022-09-12T02:36:09.428Z,15.33
2022-09-12T02:38:44.434Z,15.31
2022-09-12T02:41:15.456Z,15.30
2022-09-12T02:43:43.545Z,15.26
2022-09-12T02:46:16.644Z,15.23
2022-09-12T02:48:46.141Z,15.21
2022-09-12T02:51:14.850Z,15.20
2022-09-12T02:53:43.454Z,15.21
2022-09-12T02:56:18.482Z,15.22
2022-09-12T02:58:47.560Z,15.24
2022-09-12T03:01:28.844Z,15.24
2022-09-12T03:04:15.738Z,15.20
2022-09-12T03:06:59.197Z,15.18
2022-09-12T03:09:38.981Z,15.17
2022-09-12T03:12:20.365Z,15.14
2022-09-12T03:15:05.786Z,15.11
2022-09-12T03:17:44.541Z,15.07
2022-09-12T03:20:18.028Z,15.07
2022-09-12T03:22:54.069Z,15.10
2022-09-12T03:25:26.165Z,15.09
2022-09-12T03:27:58.556Z,15.07
2022-09-12T03:30:27.200Z,15.07
2022-09-12T03:32:56.287Z,15.08
2022-09-12T03:35:26.610Z,15.09
2022-09-12T03:37:54.708Z,15.07
2022-09-12T03:40:22.955Z,15.06
2022-09-12T03:42:50.969Z,15.02
2022-09-12T03:45:19.171Z,15.01
2022-09-12T03:47:47.207Z,15.00
2022-09-12T03:50:15.399Z,14.96
2022-09-12T03:52:44.832Z,14.92
2022-09-12T03:55:13.067Z,14.91
2022-09-12T03:57:41.191Z,14.86
2022-09-12T04:00:10.329Z,14.82
2022-09-12T04:02:41.287Z,14.77
2022-09-12T04:05:09.908Z,14.69
2022-09-12T04:07:38.068Z,14.64
2022-09-12T04:10:09.678Z,14.62
2022-09-12T04:12:39.512Z,14.61
2022-09-12T04:15:08.867Z,14.60
2022-09-12T04:17:36.867Z,14.65
2022-09-12T04:20:05.399Z,14.72
2022-09-12T04:22:33.770Z,14.80
2022-09-12T04:25:02.117Z,14.84
2022-09-12T04:27:31.735Z,14.86
2022-09-12T04:30:01.233Z,14.92
2022-09-12T04:32:30.705Z,14.97
2022-09-12T04:34:58.731Z,15.03
2022-09-12T04:37:26.740Z,15.07
2022-09-12T04:39:57.925Z,15.09
2022-09-12T04:42:26.220Z,15.10
2022-09-12T04:44:55.658Z,15.10
2022-09-12T04:47:24.030Z,15.09
2022-09-12T04:49:52.474Z,15.01
2022-09-12T04:52:20.738Z,14.95
2022-09-12T04:54:48.859Z,14.91
2022-09-12T04:57:16.864Z,14.92
2022-09-12T04:59:44.937Z,14.92
2022-09-12T05:02:14.386Z,14.90
2022-09-12T05:04:42.432Z,14.92
2022-09-12T05:07:10.422Z,14.90
2022-09-12T05:09:38.470Z,14.90
2022-09-12T05:12:07.383Z,14.92
2022-09-12T05:14:35.801Z,14.95
2022-09-12T05:17:06.055Z,14.99
2022-09-12T05:19:35.547Z,15.04
2022-09-12T05:22:05.030Z,15.10
2022-09-12T05:24:33.381Z,15.14
2022-09-12T05:27:03.429Z,15.23
2022-09-12T05:29:31.532Z,15.34
2022-09-12T05:31:59.561Z,15.47
2022-09-12T05:34:27.926Z,15.56
2022-09-12T05:36:57.289Z,15.68
2022-09-12T05:39:25.664Z,15.75
2022-09-12T05:41:54.314Z,15.82
2022-09-12T05:44:22.384Z,15.92
2022-09-12T05:46:51.406Z,16.00
2022-09-12T05:49:19.655Z,16.06
2022-09-12T05:51:47.666Z,16.13
2022-09-12T05:54:21.293Z,16.11
2022-09-12T05:56:49.506Z,16.15
2022-09-12T05:59:19.596Z,16.19
2022-09-12T06:01:48.547Z,16.25
2022-09-12T06:04:17.380Z,16.27
2022-09-12T06:06:47.108Z,16.25
2022-09-12T06:09:17.839Z,16.25
2022-09-12T06:11:46.780Z,16.29
2022-09-12T06:14:16.555Z,16.28
2022-09-12T06:16:45.126Z,16.35
2022-09-12T06:19:16.598Z,16.41
2022-09-12T06:21:44.839Z,16.48
2022-09-12T06:24:16.234Z,16.53
2022-09-12T06:26:47.429Z,16.53
2022-09-12T06:29:16.507Z,16.55
2022-09-12T06:31:45.235Z,16.58
2022-09-12T06:34:15.209Z,16.64
2022-09-12T06:36:45.249Z,16.70
2022-09-12T06:39:15.072Z,16.75
2022-09-12T06:41:44.423Z,16.91
2022-09-12T06:44:16.834Z,16.99
2022-09-12T06:46:45.357Z,17.10
2022-09-12T06:49:14.510Z,17.23
2022-09-12T06:51:43.157Z,17.19
2022-09-12T06:54:14.347Z,17.19
2022-09-12T06:56:42.637Z,17.28
2022-09-12T06:59:11.030Z,17.32
2022-09-12T07:01:42.478Z,17.35
2022-09-12T07:04:11.558Z,17.41
2022-09-12T07:06:41.309Z,17.47
2022-09-12T07:09:11.847Z,17.57
2022-09-12T07:11:41.460Z,17.56
2022-09-12T07:14:13.034Z,17.64
2022-09-12T07:16:42.828Z,17.85
2022-09-12T07:19:12.136Z,17.85
2022-09-12T07:21:41.710Z,17.91
2022-09-12T07:24:10.859Z,17.96
2022-09-12T07:26:40.574Z,18.05
2022-09-12T07:29:35.444Z,18.16
2022-09-12T07:32:01.626Z,18.21
2022-09-12T07:34:29.630Z,18.24
2022-09-12T07:36:57.938Z,18.20
2022-09-12T07:39:26.031Z,18.14
2022-09-12T07:41:54.676Z,17.91
2022-09-12T07:44:23.613Z,17.91
2022-09-12T07:46:52.350Z,17.99
2022-09-12T07:49:21.810Z,18.04
2022-09-12T07:51:49.814Z,17.94
2022-09-12T07:54:17.953Z,17.82
2022-09-12T07:56:46.069Z,17.81
2022-09-12T07:59:18.924Z,17.87
2022-09-12T08:01:58.246Z,17.94
2022-09-12T08:04:27.736Z,18.14
2022-09-12T08:06:55.718Z,18.38
2022-09-12T08:09:23.773Z,18.55
2022-09-12T08:11:51.766Z,18.81
2022-09-12T08:14:19.749Z,18.86
2022-09-12T08:16:48.205Z,18.98
2022-09-12T08:19:16.238Z,19.04
2022-09-12T08:21:45.679Z,19.04
2022-09-12T08:24:13.889Z,19.03
2022-09-12T08:26:42.542Z,19.09
2022-09-12T08:29:10.500Z,19.19
2022-09-12T08:31:38.525Z,19.06
2022-09-12T08:34:07.189Z,19.01
2022-09-12T08:36:35.685Z,19.00
2022-09-12T08:39:07.315Z,18.91
2022-09-12T08:41:39.123Z,19.07
2022-09-12T08:44:23.967Z,19.15
2022-09-12T08:47:06.970Z,19.23
2022-09-12T08:49:39.539Z,19.28
2022-09-12T08:52:14.095Z,19.35
2022-09-12T08:54:45.500Z,19.47
2022-09-12T08:57:16.259Z,19.39
2022-09-12T08:59:46.058Z,19.57
2022-09-12T09:02:44.005Z,19.69
2022-09-12T09:05:20.397Z,19.65
2022-09-12T09:08:16.474Z,19.65
2022-09-12T09:10:52.621Z,19.74
2022-09-12T09:13:51.700Z,19.86
2022-09-12T09:16:27.149Z,19.95
2022-09-12T09:18:58.459Z,19.96
2022-09-12T09:21:31.755Z,20.02
2022-09-12T09:24:05.225Z,19.99
2022-09-12T09:26:44.898Z,20.02
2022-09-12T09:29:18.724Z,20.11
2022-09-12T09:31:49.115Z,20.04
2022-09-12T09:34:21.605Z,20.19
2022-09-12T09:36:52.258Z,20.38
2022-09-12T09:39:37.438Z,20.38
2022-09-12T09:42:26.160Z,20.46
2022-09-12T09:44:57.183Z,20.34
2022-09-12T09:47:25.213Z,20.45
2022-09-12T09:49:53.416Z,20.54
2022-09-12T09:52:27.584Z,20.78
2022-09-12T09:54:58.814Z,20.88
2022-09-12T09:57:47.965Z,20.96
2022-09-12T10:00:25.865Z,20.83
2022-09-12T10:03:23.142Z,20.62
2022-09-12T10:05:53.157Z,20.79
2022-09-12T10:08:22.516Z,21.05
2022-09-12T10:10:59.022Z,20.92
2022-09-12T10:13:35.484Z,20.53
2022-09-12T10:16:06.615Z,20.44
2022-09-12T10:18:37.036Z,20.24
2022-09-12T10:21:16.012Z,20.12
2022-09-12T10:23:44.943Z,20.10
2022-09-12T10:26:16.231Z,20.07
2022-09-12T10:28:48.034Z,20.14
2022-09-12T10:31:29.579Z,20.17
2022-09-12T10:34:00.000Z,20.27
2022-09-12T10:36:38.120Z,20.46
2022-09-12T10:39:08.040Z,20.46
2022-09-12T10:41:38.000Z,20.48
2022-09-12T10:44:17.318Z,20.63
2022-09-12T10:46:45.753Z,20.99
2022-09-12T10:49:21.139Z,21.12
2022-09-12T10:51:49.751Z,21.27
2022-09-12T10:54:19.631Z,21.48
2022-09-12T10:57:02.692Z,21.14
2022-09-12T10:59:50.511Z,20.79
2022-09-12T11:02:29.709Z,20.70
2022-09-12T11:05:07.216Z,20.49
2022-09-12T11:07:43.131Z,20.42
2022-09-12T11:10:23.614Z,20.38
2022-09-12T11:13:00.685Z,20.38
2022-09-12T11:15:47.753Z,20.37
2022-09-12T11:18:28.648Z,20.39
2022-09-12T11:21:10.618Z,20.31
2022-09-12T11:24:16.834Z,20.28
2022-09-12T11:27:01.087Z,20.38
2022-09-12T11:29:43.224Z,20.49
2022-09-12T11:32:49.118Z,20.47
2022-09-12T11:35:25.910Z,20.50
2022-09-12T11:38:08.298Z,20.48
2022-09-12T11:40:44.320Z,20.44
2022-09-12T11:43:30.969Z,20.35
2022-09-12T11:46:05.592Z,20.78
2022-09-12T11:48:43.975Z,21.34
2022-09-12T11:51:20.032Z,21.76
2022-09-12T11:54:00.022Z,21.87
2022-09-12T11:56:28.069Z,22.07
2022-09-12T11:59:04.148Z,21.86
2022-09-12T12:01:46.357Z,21.74
2022-09-12T12:04:21.915Z,21.57
2022-09-12T12:06:55.119Z,21.17
2022-09-12T12:09:23.677Z,20.99
2022-09-12T12:11:57.031Z,21.10
2022-09-12T12:14:29.604Z,20.95
2022-09-12T12:16:58.745Z,21.01
2022-09-12T12:19:34.916Z,21.52
2022-09-12T12:22:17.707Z,22.03
2022-09-12T12:25:28.847Z,21.66
2022-09-12T12:28:01.778Z,21.86
2022-09-12T12:31:03.945Z,22.16
2022-09-12T12:34:10.610Z,22.67
2022-09-12T12:36:43.060Z,22.70
2022-09-12T12:39:44.326Z,22.72
2022-09-12T12:42:32.429Z,23.17
2022-09-12T12:45:01.243Z,23.80
2022-09-12T12:47:34.175Z,23.41
2022-09-12T12:50:05.489Z,23.28
2022-09-12T12:52:48.266Z,22.52
2022-09-12T12:55:19.908Z,21.99
2022-09-12T12:57:50.923Z,22.44
2022-09-12T13:00:33.804Z,22.48
2022-09-12T13:03:08.026Z,22.30
2022-09-12T13:05:42.722Z,22.28
2022-09-12T13:08:28.886Z,22.04
2022-09-12T13:11:01.046Z,21.60
2022-09-12T13:13:35.360Z,21.69
2022-09-12T13:16:03.874Z,21.50
2022-09-12T13:18:42.239Z,21.36
2022-09-12T13:21:13.986Z,21.59
2022-09-12T13:23:44.438Z,21.91
2022-09-12T13:26:14.045Z,21.97
2022-09-12T13:28:42.130Z,22.07
2022-09-12T13:31:19.154Z,22.16
2022-09-12T13:33:50.376Z,22.10
2022-09-12T13:36:55.010Z,22.68
2022-09-12T13:39:27.620Z,22.24
2022-09-12T13:42:18.195Z,22.03
2022-09-12T13:44:49.709Z,22.19
2022-09-12T13:47:24.967Z,22.04
2022-09-12T13:49:53.499Z,22.24
2022-09-12T13:52:24.357Z,22.17
2022-09-12T13:54:58.220Z,21.80
2022-09-12T13:57:31.880Z,21.62
2022-09-12T14:00:02.103Z,21.60
2022-09-12T14:02:37.927Z,21.50
2022-09-12T14:05:13.690Z,21.39
2022-09-12T14:07:55.237Z,21.28
2022-09-12T14:10:30.289Z,21.76
2022-09-12T14:12:59.497Z,21.71
2022-09-12T14:15:31.460Z,21.82
2022-09-12T14:18:01.998Z,21.62
2022-09-12T14:20:32.839Z,21.33
2022-09-12T14:23:04.130Z,22.01
2022-09-12T14:25:39.143Z,22.46
2022-09-12T14:28:07.709Z,22.77
2022-09-12T14:30:37.404Z,23.18
2022-09-12T14:33:17.941Z,23.29
2022-09-12T14:35:48.410Z,23.18
2022-09-12T14:38:25.766Z,23.26
2022-09-12T14:41:04.179Z,23.48
2022-09-12T14:43:34.958Z,23.51
2022-09-12T14:46:06.130Z,23.44
2022-09-12T14:48:37.529Z,23.47
2022-09-12T14:51:07.335Z,23.49
2022-09-12T14:53:37.445Z,23.64
2022-09-12T14:56:11.262Z,23.77
2022-09-12T14:58:40.529Z,23.71
2022-09-12T15:01:26.955Z,23.72
2022-09-12T15:03:57.413Z,23.68
2022-09-12T15:06:29.427Z,23.70
2022-09-12T15:09:00.648Z,23.81
2022-09-12T15:11:30.444Z,23.61
2022-09-12T15:13:58.558Z,24.05
2022-09-12T15:16:26.705Z,24.12
2022-09-12T15:18:54.755Z,24.01
2022-09-12T15:21:22.816Z,23.68
2022-09-12T15:23:52.220Z,23.42
2022-09-12T15:26:21.840Z,23.01
2022-09-12T15:28:52.192Z,22.84
2022-09-12T15:31:25.209Z,23.06
2022-09-12T15:33:53.894Z,22.86
2022-09-12T15:36:24.234Z,22.72
2022-09-12T15:38:53.163Z,22.62
2022-09-12T15:41:24.143Z,22.58
2022-09-12T15:43:53.997Z,22.46
2022-09-12T15:46:26.029Z,22.51
2022-09-12T15:48:54.737Z,22.52
2022-09-12T15:51:23.506Z,22.30
2022-09-12T15:53:52.638Z,22.38
2022-09-12T15:56:22.249Z,22.31
2022-09-12T15:58:58.655Z,22.04
2022-09-12T16:01:30.161Z,22.00
2022-09-12T16:03:58.747Z,22.11
2022-09-12T16:06:27.908Z,22.26
2022-09-12T16:08:57.195Z,22.01
2022-09-12T16:11:27.304Z,22.01
2022-09-12T16:13:56.769Z,21.81
2022-09-12T16:16:26.168Z,21.69
2022-09-12T16:18:55.781Z,21.61
2022-09-12T16:21:24.077Z,21.58
2022-09-12T16:23:52.183Z,21.49
2022-09-12T16:26:20.264Z,21.49
2022-09-12T16:28:48.652Z,21.40
2022-09-12T16:31:19.681Z,21.35
2022-09-12T16:33:47.872Z,21.27
2022-09-12T16:36:19.556Z,21.17
2022-09-12T16:38:49.469Z,21.17
2022-09-12T16:41:19.559Z,21.04
2022-09-12T16:43:47.720Z,20.91
2022-09-12T16:46:17.744Z,20.84
2022-09-12T16:48:52.108Z,20.83
2022-09-12T16:51:23.666Z,20.81
2022-09-12T16:53:52.150Z,20.69
2022-09-12T16:56:21.359Z,20.62
2022-09-12T16:58:49.964Z,20.52
2022-09-12T17:01:20.404Z,20.51
2022-09-12T17:03:49.202Z,20.45
2022-09-12T17:06:20.090Z,20.48
2022-09-12T17:08:51.552Z,20.45
2022-09-12T17:11:21.596Z,20.38
2022-09-12T17:14:07.290Z,20.33
2022-09-12T17:16:37.737Z,20.22
2022-09-12T17:19:06.724Z,20.11
2022-09-12T17:21:35.589Z,20.03
2022-09-12T17:24:05.899Z,19.95
2022-09-12T17:26:34.312Z,19.81
2022-09-12T17:29:03.192Z,19.77
2022-09-12T17:31:32.251Z,19.66
2022-09-12T17:34:01.420Z,19.59
2022-09-12T17:36:31.981Z,19.63
2022-09-12T17:39:00.804Z,19.57
2022-09-12T17:41:32.413Z,19.54
2022-09-12T17:44:02.719Z,19.46
2022-09-12T17:46:35.135Z,19.42
2022-09-12T17:49:05.284Z,19.40
2022-09-12T17:51:33.421Z,19.36
2022-09-12T17:54:03.611Z,19.30
2022-09-12T17:56:34.331Z,19.24
2022-09-12T17:59:03.237Z,19.24
2022-09-12T18:01:49.060Z,19.19
2022-09-12T18:04:18.115Z,19.08
2022-09-12T18:06:48.786Z,19.06
2022-09-12T18:09:19.448Z,18.99
2022-09-12T18:11:50.012Z,18.92
2022-09-12T18:14:18.625Z,18.84
2022-09-12T18:16:47.275Z,18.81
2022-09-12T18:19:16.250Z,18.78
2022-09-12T18:21:44.659Z,18.75
2022-09-12T18:24:12.804Z,18.71
2022-09-12T18:26:42.655Z,18.70
2022-09-12T18:29:12.526Z,18.66
2022-09-12T18:31:40.896Z,18.63
2022-09-12T18:34:12.738Z,18.58
2022-09-12T18:36:41.352Z,18.52
2022-09-12T18:39:09.508Z,18.50
2022-09-12T18:41:38.171Z,18.47
2022-09-12T18:44:06.383Z,18.45
2022-09-12T18:46:36.348Z,18.41
2022-09-12T18:49:05.638Z,18.37
2022-09-12T18:51:36.038Z,18.35
2022-09-12T18:54:06.526Z,18.32
2022-09-12T18:56:37.729Z,18.27
2022-09-12T18:59:07.605Z,18.20
2022-09-12T19:01:38.828Z,18.13
2022-09-12T19:04:07.969Z,18.06
2022-09-12T19:06:38.858Z,18.06
2022-09-12T19:09:09.071Z,18.02
2022-09-12T19:11:38.749Z,17.99
2022-09-12T19:14:07.649Z,17.95
2022-09-12T19:16:37.254Z,17.91
2022-09-12T19:19:06.161Z,17.89
2022-09-12T19:21:36.861Z,17.86
2022-09-12T19:24:07.228Z,17.87
2022-09-12T19:26:35.855Z,17.81
2022-09-12T19:29:05.161Z,17.75
2022-09-12T19:31:34.104Z,17.73
2022-09-12T19:34:06.282Z,17.63
2022-09-12T19:36:50.927Z,17.57
2022-09-12T19:39:20.612Z,17.55
2022-09-12T19:41:49.290Z,17.52
2022-09-12T19:44:19.260Z,17.49
2022-09-12T19:46:47.478Z,17.47
2022-09-12T19:49:17.029Z,17.44
2022-09-12T19:51:45.072Z,17.39
2022-09-12T19:54:13.663Z,17.37
2022-09-12T19:56:42.342Z,17.35
2022-09-12T19:59:10.360Z,17.34
2022-09-12T20:01:38.748Z,17.31
2022-09-12T20:04:08.016Z,17.27
2022-09-12T20:06:37.535Z,17.24
2022-09-12T20:09:05.691Z,17.22
2022-09-12T20:11:34.062Z,17.18
2022-09-12T20:14:02.269Z,17.18
2022-09-12T20:16:31.077Z,17.16
2022-09-12T20:19:00.683Z,17.16
2022-09-12T20:21:33.028Z,17.14
2022-09-12T20:24:05.026Z,17.10
2022-09-12T20:26:33.615Z,17.10
2022-09-12T20:29:01.957Z,17.12
2022-09-12T20:31:30.340Z,17.10
2022-09-12T20:33:58.617Z,17.08
2022-09-12T20:36:27.402Z,17.03
2022-09-12T20:38:57.872Z,16.99
2022-09-12T20:41:29.687Z,16.98
2022-09-12T20:43:58.350Z,16.96
2022-09-12T20:46:28.266Z,16.90
2022-09-12T20:48:56.582Z,16.85
2022-09-12T20:51:26.696Z,16.86
2022-09-12T20:53:55.505Z,16.81
2022-09-12T20:56:24.214Z,16.76
2022-09-12T20:58:53.715Z,16.75
2022-09-12T21:01:22.070Z,16.75
2022-09-12T21:03:50.295Z,16.71
2022-09-12T21:06:18.743Z,16.61
2022-09-12T21:08:47.742Z,16.54
2022-09-12T21:11:16.442Z,16.51
2022-09-12T21:13:44.451Z,16.49
2022-09-12T21:16:15.752Z,16.35
2022-09-12T21:18:44.567Z,16.31
2022-09-12T21:21:16.509Z,16.24
2022-09-12T21:23:45.484Z,16.07
2022-09-12T21:26:13.792Z,16.03
2022-09-12T21:28:41.778Z,15.97
2022-09-12T21:31:10.116Z,15.96
2022-09-12T21:33:40.033Z,15.83
2022-09-12T21:36:09.547Z,15.82
2022-09-12T21:38:37.681Z,15.63
2022-09-12T21:41:07.632Z,15.41
2022-09-12T21:43:36.019Z,15.23
2022-09-12T21:46:05.245Z,15.31
2022-09-12T21:48:33.879Z,15.21
2022-09-12T21:51:03.956Z,15.19
2022-09-12T21:53:32.251Z,15.20
2022-09-12T21:56:04.979Z,15.26
2022-09-12T21:58:33.137Z,15.25
2022-09-12T22:01:01.604Z,15.21
2022-09-12T22:03:30.608Z,14.93
2022-09-12T22:05:59.500Z,14.92
2022-09-12T22:08:30.006Z,14.86
2022-09-12T22:11:02.206Z,14.71
2022-09-12T22:13:31.509Z,14.58
2022-09-12T22:16:00.669Z,14.60
2022-09-12T22:18:28.794Z,14.60
2022-09-12T22:21:01.073Z,14.59
2022-09-12T22:23:48.350Z,14.69
2022-09-12T22:26:17.070Z,14.73
2022-09-12T22:28:45.523Z,14.57
2022-09-12T22:31:14.659Z,14.38
2022-09-12T22:33:42.844Z,14.34
2022-09-12T22:36:11.940Z,14.38
2022-09-12T22:38:41.659Z,14.44
2022-09-12T22:41:13.123Z,14.49
2022-09-12T22:43:41.228Z,14.43
2022-09-12T22:46:10.486Z,14.27
2022-09-12T22:48:39.532Z,14.22
2022-09-12T22:51:08.339Z,14.19
2022-09-12T22:53:36.893Z,14.25
2022-09-12T22:56:07.093Z,14.16
2022-09-12T22:58:37.297Z,14.13
2022-09-12T23:01:06.369Z,14.03
2022-09-12T23:03:35.242Z,13.94
2022-09-12T23:06:03.790Z,13.99
2022-09-12T23:08:32.100Z,13.86
2022-09-12T23:11:03.608Z,13.86
2022-09-12T23:13:33.094Z,13.87
2022-09-12T23:16:02.214Z,13.80
2022-09-12T23:18:31.043Z,13.83
2022-09-12T23:21:01.022Z,13.72
2022-09-12T23:23:29.977Z,13.72
2022-09-12T23:26:06.300Z,13.60
2022-09-12T23:28:36.613Z,13.53
2022-09-12T23:31:05.067Z,13.43
2022-09-12T23:33:33.914Z,13.48
2022-09-12T23:36:02.912Z,13.57
2022-09-12T23:38:31.396Z,13.61
2022-09-12T23:41:00.469Z,13.54
2022-09-12T23:43:29.015Z,13.49
2022-09-12T23:45:59.209Z,13.43
2022-09-12T23:48:27.761Z,13.42
2022-09-12T23:50:55.956Z,13.31
2022-09-12T23:53:24.072Z,13.30
2022-09-12T23:55:52.336Z,13.19
2022-09-12T23:58:21.621Z,13.11
